Time;durP1;ratioP1;P1;durP2;ratioP2;P2;SDS_P1;SDS_P2;PMS_P1;PMS_P2;Temp;Humidity;BMP_temperature;BMP_pressure;BME280_temperature;BME280_humidity;BME280_pressure;Samples;Min_cycle;Max_cycle;Signal;HPM_P1;HPM_P2
2021/03/29 00:00:31;;;;;;;4.95;3.38;;;;;;;18.51;44.67;101019.22;2057569;28;20082;-52
2021/03/29 00:01:32;;;;;;;5.03;3.13;;;;;;;18.52;44.59;101015.47;2058776;28;20027;-49
2021/03/29 00:02:32;;;;;;;5.17;3.17;;;;;;;18.51;44.53;101020.06;2059049;28;20168;-49
2021/03/29 00:03:33;;;;;;;5.13;3.00;;;;;;;18.52;44.68;101015.47;2059193;28;20026;-52
2021/03/29 00:04:33;;;;;;;5.90;3.63;;;;;;;18.51;44.59;101024.69;2058789;28;20319;-51
2021/03/29 00:05:34;;;;;;;4.87;3.10;;;;;;;18.50;44.76;101023.81;2061346;28;20119;-52
2021/03/29 00:06:36;;;;;;;4.17;2.97;;;;;;;18.51;44.54;101020.06;2061859;28;20019;-52
2021/03/29 00:07:38;;;;;;;;;;;;;;;18.46;44.81;101021.44;2064776;28;20266;-51
2021/03/29 00:08:39;;;;;;;4.75;2.72;;;;;;;18.47;44.79;101028.63;2064892;28;19991;-50
2021/03/29 00:09:40;;;;;;;4.97;2.90;;;;;;;18.46;44.72;101019.59;2059989;28;20022;-52
2021/03/29 00:10:44;;;;;;;5.78;3.33;;;;;;;18.46;44.80;101014.13;2057564;28;20035;-50
2021/03/29 00:11:46;;;;;;;4.72;3.28;;;;;;;18.48;44.77;101020.34;2060969;28;20107;-50
2021/03/29 00:12:48;;;;;;;;;;;;;;;18.43;44.81;101017.97;2061897;28;20026;-52
2021/03/29 00:13:52;;;;;;;4.00;2.40;;;;;;;18.45;44.93;101014.25;2057653;28;20389;-52
2021/03/29 00:14:53;;;;;;;4.85;2.83;;;;;;;18.45;44.77;101009.66;2062722;28;20033;-50
2021/03/29 00:15:56;;;;;;;3.72;2.88;;;;;;;18.45;44.91;101014.25;2061935;28;20436;-52
2021/03/29 00:16:57;;;;;;;4.65;2.95;;;;;;;18.46;44.85;101013.25;2057441;28;20413;-53
2021/03/29 00:17:58;;;;;;;5.67;3.07;;;;;;;18.47;44.65;101017.72;2060774;28;20029;-52
2021/03/29 00:18:59;;;;;;;4.72;2.95;;;;;;;18.47;44.84;101017.72;2056890;28;20326;-52
2021/03/29 00:20:00;;;;;;;6.60;3.57;;;;;;;18.47;44.84;101012.25;2065231;28;20045;-53
2021/03/29 00:21:04;;;;;;;4.10;2.53;;;;;;;18.46;44.82;101008.66;2053321;28;20030;-52
2021/03/29 00:22:06;;;;;;;7.55;4.43;;;;;;;18.46;44.80;101016.84;2057757;28;20026;-52
2021/03/29 00:23:07;;;;;;;5.68;3.38;;;;;;;18.47;44.84;101012.25;2063103;28;20090;-52
2021/03/29 00:24:08;;;;;;;7.47;3.60;;;;;;;18.46;44.91;101014.13;2065338;28;20068;-51
2021/03/29 00:25:13;;;;;;;4.15;2.85;;;;;;;18.46;44.81;101010.53;2064518;28;20085;-50
2021/03/29 00:26:14;;;;;;;5.60;3.03;;;;;;;18.46;44.89;101013.25;2061879;28;20034;-53
2021/03/29 00:27:14;;;;;;;4.47;2.83;;;;;;;18.46;44.74;101016.00;2062318;28;20077;-52
2021/03/29 00:28:15;;;;;;;4.67;2.90;;;;;;;18.46;44.82;101014.13;2064045;28;20061;-53
2021/03/29 00:29:16;;;;;;;5.23;3.10;;;;;;;18.45;44.96;101014.25;2061146;28;20045;-49
2021/03/29 00:30:24;;;;;;;6.10;3.10;;;;;;;18.46;44.95;101007.81;2064858;28;20026;-50
2021/03/29 00:31:24;;;;;;;4.22;3.25;;;;;;;18.45;44.97;101012.41;2063549;28;20124;-52
2021/03/29 00:32:25;;;;;;;5.77;3.00;;;;;;;18.45;44.93;101014.25;2061535;28;20034;-49
2021/03/29 00:33:28;;;;;;;4.45;3.20;;;;;;;18.44;44.82;101013.38;2061901;28;20034;-52
2021/03/29 00:34:30;;;;;;;4.80;3.20;;;;;;;18.46;44.88;101010.53;2064616;28;20029;-52
2021/03/29 00:35:32;;;;;;;4.20;2.88;;;;;;;18.45;44.93;101012.41;2063696;28;20089;-52
2021/03/29 00:36:34;;;;;;;4.57;3.03;;;;;;;18.45;45.00;101004.22;2064453;28;20034;-52
2021/03/29 00:37:39;;;;;;;4.40;2.88;;;;;;;18.43;44.91;101012.50;2064982;28;20826;-52
2021/03/29 00:38:41;;;;;;;4.88;3.03;;;;;;;18.45;44.97;101006.03;2064639;28;20034;-49
2021/03/29 00:39:42;;;;;;;3.63;2.58;;;;;;;18.42;45.16;101008.06;2064215;28;20049;-49
2021/03/29 00:40:50;;;;;;;4.78;3.13;;;;;;;18.41;45.01;101003.56;2057560;28;20022;-52
2021/03/29 00:41:52;;;;;;;4.60;3.00;;;;;;;18.41;45.03;101006.31;2063755;28;20034;-52
2021/03/29 00:43:01;;;;;;;4.47;3.10;;;;;;;18.41;44.96;101003.56;2063586;28;20045;-52
2021/03/29 00:44:04;;;;;;;4.03;2.65;;;;;;;18.42;45.17;101010.78;2058845;28;20526;-51
2021/03/29 00:45:08;;;;;;;4.72;2.88;;;;;;;18.41;45.12;101006.31;2063022;28;20049;-52
2021/03/29 00:46:11;;;;;;;5.25;2.90;;;;;;;18.42;45.02;101008.06;2057454;28;20338;-50
2021/03/29 00:47:13;;;;;;;5.00;2.92;;;;;;;18.42;44.93;101005.31;2063443;28;20026;-52
2021/03/29 00:48:19;;;;;;;3.97;2.42;;;;;;;18.41;45.01;101009.03;2064983;28;20624;-52
2021/03/29 00:49:19;;;;;;;4.55;2.80;;;;;;;18.41;45.13;101003.56;2059180;28;20023;-52
2021/03/29 00:50:29;;;;;;;4.07;2.90;;;;;;;18.41;44.99;101008.16;2064057;28;20349;-52
2021/03/29 00:51:30;;;;;;;3.63;2.80;;;;;;;18.42;44.96;101015.34;2056916;28;20030;-51
2021/03/29 00:52:31;;;;;;;5.65;3.33;;;;;;;18.41;45.15;101003.56;2064441;28;20990;-53
2021/03/29 00:53:33;;;;;;;4.93;3.50;;;;;;;18.42;45.04;101005.31;2065774;28;20025;-52
2021/03/29 00:54:37;;;;;;;4.25;2.78;;;;;;;18.41;44.98;101003.56;2058887;28;20038;-52
2021/03/29 00:55:41;;;;;;;4.07;2.70;;;;;;;18.40;45.09;101010.03;2060800;28;20018;-49
2021/03/29 00:56:42;;;;;;;4.40;3.10;;;;;;;18.41;45.11;100997.25;2061188;28;20581;-52
2021/03/29 00:57:42;;;;;;;4.47;2.97;;;;;;;18.41;45.02;101000.84;2059406;28;20022;-52
2021/03/29 00:58:45;;;;;;;4.13;2.90;;;;;;;18.40;45.05;100999.13;2064647;28;20030;-50
2021/03/29 00:59:46;;;;;;;4.28;2.72;;;;;;;18.41;45.12;100998.09;2063577;28;20058;-51
2021/03/29 01:00:54;;;;;;;4.73;3.03;;;;;;;18.40;45.02;100995.53;2067028;28;20029;-52
2021/03/29 01:01:55;;;;;;;5.03;3.47;;;;;;;18.40;45.02;100990.94;2060073;28;20030;-52
2021/03/29 01:02:56;;;;;;;4.40;2.77;;;;;;;18.42;45.11;100998.97;2062670;28;20057;-48
2021/03/29 01:04:01;;;;;;;3.73;3.17;;;;;;;18.41;44.99;100992.66;2063760;28;20025;-52
2021/03/29 01:05:04;;;;;;;4.53;2.78;;;;;;;18.42;45.08;100988.06;2060991;28;20044;-53
2021/03/29 01:06:20;;;;;;;4.88;2.92;;;;;;;18.44;45.13;100991.53;2062950;28;20318;-52
2021/03/29 01:07:21;;;;;;;4.50;3.28;;;;;;;18.43;45.09;100990.66;2064083;28;20356;-51
2021/03/29 01:08:22;;;;;;;3.70;2.60;;;;;;;18.43;45.23;100990.66;2057173;28;20031;-50
2021/03/29 01:09:25;;;;;;;3.72;3.13;;;;;;;18.43;45.15;100985.22;2063049;28;20079;-52
2021/03/29 01:10:26;;;;;;;4.10;2.50;;;;;;;18.45;45.22;100987.84;2056726;28;20062;-50
2021/03/29 01:11:33;;;;;;;4.90;2.77;;;;;;;18.44;45.19;100991.53;2059202;28;20453;-52
2021/03/29 01:12:34;;;;;;;4.35;2.90;;;;;;;18.45;45.05;100981.47;2057582;28;20559;-52
2021/03/29 01:13:38;;;;;;;4.37;3.20;;;;;;;18.46;44.91;100983.22;2057427;28;20057;-52
2021/03/29 01:14:42;;;;;;;3.90;2.70;;;;;;;18.45;45.25;100979.63;2062285;28;20296;-50
2021/03/29 01:15:44;;;;;;;5.00;2.90;;;;;;;18.47;45.07;100987.69;2064469;28;20030;-49
2021/03/29 01:16:48;;;;;;;4.25;2.67;;;;;;;18.46;45.23;100980.50;2064393;28;20022;-52
2021/03/29 01:17:50;;;;;;;3.05;2.20;;;;;;;18.47;45.11;100984.97;2061443;28;20372;-52
2021/03/29 01:18:55;;;;;;;5.00;3.30;;;;;;;18.47;45.03;100987.69;2061618;28;20097;-52
2021/03/29 01:20:01;;;;;;;5.22;3.08;;;;;;;18.46;45.14;100984.09;2061602;28;20022;-51
2021/03/29 01:21:19;;;;;;;4.35;2.67;;;;;;;18.46;45.14;100983.22;2062538;28;20113;-51
2021/03/29 01:22:24;;;;;;;3.75;2.70;;;;;;;18.48;45.27;100981.25;2064633;28;20444;-52
2021/03/29 01:23:27;;;;;;;4.07;3.03;;;;;;;18.48;45.16;100987.56;2062671;28;20639;-52
2021/03/29 01:25:06;;;;;;;5.40;3.25;;;;;;;18.46;45.08;100981.38;2059217;28;20044;-51
2021/03/29 01:26:16;;;;;;;3.75;2.53;;;;;;;18.45;45.26;100985.09;2056897;28;20739;-51
2021/03/29 01:27:23;;;;;;;3.42;2.50;;;;;;;18.45;45.24;100981.47;2063840;28;20050;-52
2021/03/29 01:28:24;;;;;;;3.90;2.90;;;;;;;18.45;45.05;100985.09;2063818;28;20030;-52
2021/03/29 01:29:30;;;;;;;5.70;2.72;;;;;;;18.45;45.10;100982.38;2055696;28;20037;-52
2021/03/29 01:30:33;;;;;;;3.85;2.40;;;;;;;18.47;44.96;100979.50;2056425;28;20125;-52
2021/03/29 01:31:34;;;;;;;4.45;2.85;;;;;;;18.47;45.12;100974.03;2062218;28;20026;-51
2021/03/29 01:32:35;;;;;;;3.90;2.45;;;;;;;18.46;45.02;100977.78;2059911;28;20085;-49
2021/03/29 01:33:38;;;;;;;3.47;2.30;;;;;;;18.46;45.06;100978.63;2062009;28;20057;-50
2021/03/29 01:34:40;;;;;;;4.80;2.92;;;;;;;18.46;45.09;100975.91;2063738;28;20105;-52
2021/03/29 01:35:47;;;;;;;3.90;2.47;;;;;;;18.43;45.10;100974.28;2064436;28;20138;-50
2021/03/29 01:36:48;;;;;;;4.82;2.83;;;;;;;18.46;45.32;100977.78;2058430;28;20030;-52
2021/03/29 01:37:49;;;;;;;3.90;2.67;;;;;;;18.45;45.04;100971.44;2056404;28;20042;-49
2021/03/29 01:38:50;;;;;;;;;;;;;;;18.40;45.19;100974.56;2062789;28;20026;-51
2021/03/29 01:39:51;;;;;;;4.53;2.97;;;;;;;18.41;45.04;100976.28;2064252;28;20450;-51
2021/03/29 01:40:53;;;;;;;3.27;2.20;;;;;;;18.41;45.10;100969.94;2063509;28;20155;-50
2021/03/29 01:41:54;;;;;;;4.55;2.42;;;;;;;18.42;45.09;100978.03;2064096;28;20027;-48
2021/03/29 01:42:56;;;;;;;3.63;2.63;;;;;;;18.43;45.04;100973.44;2062413;28;20022;-52
2021/03/29 01:43:58;;;;;;;3.58;2.50;;;;;;;18.43;45.10;100970.69;2066508;28;20030;-49
2021/03/29 01:44:59;;;;;;;4.68;2.40;;;;;;;18.44;45.05;100969.69;2064515;28;20111;-49
2021/03/29 01:45:59;;;;;;;3.73;2.60;;;;;;;18.43;45.20;100978.88;2062771;28;20261;-51
2021/03/29 01:47:00;;;;;;;3.37;2.93;;;;;;;18.42;45.12;100977.13;2064526;28;20400;-50
2021/03/29 01:48:03;;;;;;;4.23;2.70;;;;;;;18.42;45.25;100967.09;2062852;28;20022;-52
2021/03/29 01:49:04;;;;;;;5.78;2.78;;;;;;;18.42;45.24;100969.84;2060822;28;20062;-51
2021/03/29 01:50:07;;;;;;;4.40;2.40;;;;;;;18.41;45.30;100964.50;2064531;28;20069;-52
2021/03/29 01:51:08;;;;;;;4.00;2.72;;;;;;;18.42;45.08;100969.84;2060024;28;20052;-51
2021/03/29 01:52:09;;;;;;;3.35;2.33;;;;;;;18.42;45.07;100972.56;2057954;28;20073;-52
2021/03/29 01:53:11;;;;;;;3.50;2.28;;;;;;;18.42;45.21;100974.41;2064525;28;20140;-51
2021/03/29 01:54:13;;;;;;;3.35;2.42;;;;;;;18.42;45.24;100972.56;2060945;28;20042;-52
2021/03/29 01:55:14;;;;;;;3.38;2.55;;;;;;;18.42;45.32;100971.69;2064815;28;20246;-53
2021/03/29 01:56:15;;;;;;;4.15;3.10;;;;;;;18.41;45.16;100968.09;2059856;28;20042;-51
2021/03/29 01:57:15;;;;;;;4.73;3.20;;;;;;;18.42;45.19;100977.13;2061340;28;20054;-53
2021/03/29 01:58:17;;;;;;;3.03;2.40;;;;;;;18.41;45.28;100976.28;2065949;28;20414;-50
2021/03/29 01:59:17;;;;;;;3.08;2.20;;;;;;;18.41;45.34;100970.81;2060103;28;20023;-52
2021/03/29 02:00:30;;;;;;;3.47;2.53;;;;;;;18.41;45.17;100975.41;2064423;28;20034;-51
2021/03/29 02:01:31;;;;;;;3.78;2.60;;;;;;;18.41;45.24;100970.81;2068729;28;20205;-52
2021/03/29 02:02:31;;;;;;;3.80;2.27;;;;;;;18.41;45.15;100969.94;2061088;28;20117;-51
2021/03/29 02:03:33;;;;;;;4.10;2.70;;;;;;;18.40;45.37;100969.09;2064783;28;20030;-52
2021/03/29 02:04:34;;;;;;;4.40;2.92;;;;;;;18.39;45.04;100961.88;2059443;28;20054;-50
2021/03/29 02:05:35;;;;;;;3.35;2.55;;;;;;;18.39;45.26;100967.34;2061462;28;20093;-52
2021/03/29 02:06:36;;;;;;;4.33;2.63;;;;;;;18.39;45.27;100964.59;2063891;28;20072;-50
2021/03/29 02:07:38;;;;;;;2.90;2.28;;;;;;;18.41;45.33;100969.94;2056749;28;20080;-51
2021/03/29 02:08:40;;;;;;;;;;;;;;;18.35;45.32;100967.72;2063797;28;20040;-53
2021/03/29 02:09:41;;;;;;;3.60;2.83;;;;;;;18.35;45.42;100965.88;2064989;28;19920;-50
2021/03/29 02:10:43;;;;;;;4.90;2.63;;;;;;;18.37;45.39;100966.63;2064755;28;20027;-52
2021/03/29 02:11:43;;;;;;;3.95;2.50;;;;;;;18.37;45.37;100969.34;2060544;28;20027;-53
2021/03/29 02:12:44;;;;;;;4.30;2.90;;;;;;;18.37;45.28;100966.63;2064858;28;20370;-49
2021/03/29 02:13:49;;;;;;;4.20;2.47;;;;;;;18.37;45.42;100971.19;2059011;28;20019;-49
2021/03/29 02:14:50;;;;;;;5.85;2.22;;;;;;;18.36;45.35;100970.31;2056640;28;20073;-53
2021/03/29 02:15:54;;;;;;;4.83;2.57;;;;;;;18.38;45.32;100964.75;2056355;28;20142;-52
2021/03/29 02:16:57;;;;;;;3.92;2.53;;;;;;;18.36;45.46;100962.13;2059798;28;20022;-51
2021/03/29 02:18:04;;;;;;;5.15;2.90;;;;;;;18.35;45.25;100960.41;2064658;28;20498;-51
2021/03/29 02:19:06;;;;;;;3.42;2.40;;;;;;;18.36;45.39;100967.59;2061465;28;20081;-51
2021/03/29 02:20:13;;;;;;;3.47;2.28;;;;;;;18.36;45.50;100966.72;2062201;28;20480;-52
2021/03/29 02:21:39;;;;;;;3.80;2.60;;;;;;;18.36;45.40;100964.00;2064931;28;20038;-50
2021/03/29 02:22:44;;;;;;;4.10;3.03;;;;;;;18.34;45.42;100969.56;2059506;28;20543;-50
2021/03/29 02:23:51;;;;;;;3.20;2.28;;;;;;;18.34;45.37;100961.38;2061147;28;20018;-52
2021/03/29 02:24:53;;;;;;;4.07;2.50;;;;;;;18.36;45.31;100967.59;2059478;28;20018;-51
2021/03/29 02:25:54;;;;;;;3.80;2.53;;;;;;;18.36;45.36;100966.72;2057559;28;20405;-52
2021/03/29 02:26:55;;;;;;;3.90;2.50;;;;;;;18.35;45.37;100960.41;2060227;28;20076;-49
2021/03/29 02:27:59;;;;;;;3.10;2.10;;;;;;;18.35;45.36;100965.00;2061565;28;20030;-52
2021/03/29 02:29:00;;;;;;;4.00;2.55;;;;;;;18.35;45.42;100965.88;2060367;28;20057;-51
2021/03/29 02:30:00;;;;;;;3.93;2.60;;;;;;;18.35;45.45;100962.28;2057879;28;20053;-52
2021/03/29 02:31:03;;;;;;;2.83;2.10;;;;;;;18.35;45.39;100957.69;2061943;28;20029;-52
2021/03/29 02:32:05;;;;;;;5.32;2.70;;;;;;;18.35;45.49;100957.69;2058644;28;20125;-51
2021/03/29 02:33:08;;;;;;;3.78;2.60;;;;;;;18.34;45.53;100958.66;2062789;28;20101;-52
2021/03/29 02:34:08;;;;;;;4.65;2.63;;;;;;;18.36;45.36;100951.22;2061735;28;20046;-50
2021/03/29 02:35:10;;;;;;;4.60;2.97;;;;;;;18.36;45.48;100956.66;2063566;28;20061;-49
2021/03/29 02:36:11;;;;;;;3.25;2.50;;;;;;;18.36;45.36;100956.66;2063292;28;20045;-50
2021/03/29 02:37:12;;;;;;;2.87;2.13;;;;;;;18.37;45.44;100952.06;2063015;28;20049;-52
2021/03/29 02:38:18;;;;;;;3.30;2.63;;;;;;;18.36;45.49;100947.63;2061837;28;20053;-51
2021/03/29 02:39:19;;;;;;;3.58;2.40;;;;;;;18.37;45.36;100949.34;2057716;28;20027;-50
2021/03/29 02:40:21;;;;;;;4.32;2.63;;;;;;;18.36;45.48;100948.47;2069423;28;20044;-52
2021/03/29 02:41:31;;;;;;;3.65;1.95;;;;;;;18.37;45.39;100950.25;2071579;28;20038;-52
2021/03/29 02:42:33;;;;;;;6.10;2.38;;;;;;;18.39;45.51;100952.81;2064536;28;20528;-51
2021/03/29 02:43:34;;;;;;;2.75;2.10;;;;;;;18.38;45.53;100946.50;2063203;28;20468;-50
2021/03/29 02:44:36;;;;;;;3.47;2.45;;;;;;;18.38;45.51;100949.22;2063407;28;20459;-50
2021/03/29 02:45:49;;;;;;;3.83;2.50;;;;;;;18.39;45.46;100948.22;2057975;28;20034;-52
2021/03/29 02:46:49;;;;;;;;;;;;;;;18.33;45.73;100948.75;2062968;28;20033;-52
2021/03/29 02:47:53;;;;;;;3.33;2.13;;;;;;;18.35;45.70;100945.91;2064621;28;19913;-51
2021/03/29 02:48:57;;;;;;;3.60;2.70;;;;;;;18.37;45.60;100942.06;2069516;28;20136;-52
2021/03/29 02:49:59;;;;;;;3.20;2.40;;;;;;;18.37;45.53;100933.84;2060292;28;20022;-52
2021/03/29 02:51:04;;;;;;;3.65;2.05;;;;;;;18.38;45.60;100943.78;2059937;28;20097;-51
2021/03/29 02:52:05;;;;;;;4.40;2.17;;;;;;;18.38;45.64;100932.84;2063175;28;20401;-51
2021/03/29 02:53:11;;;;;;;3.78;2.65;;;;;;;18.38;45.43;100932.84;2060702;28;20022;-52
2021/03/29 02:54:13;;;;;;;4.70;2.42;;;;;;;18.39;45.43;100933.72;2066643;28;20112;-52
2021/03/29 02:55:16;;;;;;;4.60;2.60;;;;;;;18.39;45.46;100934.56;2063292;28;20492;-52
2021/03/29 02:56:23;;;;;;;4.13;2.53;;;;;;;18.39;45.35;100931.84;2063273;28;20117;-52
2021/03/29 02:57:24;;;;;;;3.97;2.60;;;;;;;18.39;45.43;100929.13;2063881;28;20030;-52
2021/03/29 02:58:28;;;;;;;3.67;2.20;;;;;;;18.38;45.43;100930.13;2064581;28;20037;-51
2021/03/29 02:59:29;;;;;;;2.78;2.30;;;;;;;18.39;45.52;100934.56;2059108;28;20022;-52
2021/03/29 03:00:32;;;;;;;2.90;2.23;;;;;;;18.41;45.35;100939.94;2062343;28;20030;-51
2021/03/29 03:01:37;;;;;;;3.78;2.45;;;;;;;18.40;45.73;100933.59;2058113;28;20524;-50
2021/03/29 03:02:38;;;;;;;4.45;2.75;;;;;;;18.40;45.44;100933.59;2063979;28;20455;-51
2021/03/29 03:03:41;;;;;;;4.05;2.90;;;;;;;18.39;45.43;100934.56;2064303;28;20116;-52
2021/03/29 03:04:42;;;;;;;4.10;2.33;;;;;;;18.39;45.57;100940.03;2059448;28;20031;-50
2021/03/29 03:05:44;;;;;;;3.83;2.22;;;;;;;18.38;45.37;100927.41;2059435;28;20022;-51
2021/03/29 03:06:45;;;;;;;3.97;2.53;;;;;;;18.39;45.46;100929.13;2062556;28;20026;-52
2021/03/29 03:07:46;;;;;;;3.63;2.47;;;;;;;18.38;45.30;100937.44;2063122;28;20097;-49
2021/03/29 03:08:47;;;;;;;3.50;2.20;;;;;;;18.40;45.51;100924.56;2065507;28;20066;-52
2021/03/29 03:09:48;;;;;;;4.22;2.70;;;;;;;18.39;45.55;100933.72;2064151;28;20542;-50
2021/03/29 03:10:49;;;;;;;3.73;2.40;;;;;;;18.39;45.44;100925.53;2064717;28;20172;-51
2021/03/29 03:11:50;;;;;;;2.83;2.40;;;;;;;18.39;45.41;100926.38;2056604;28;20186;-52
2021/03/29 03:12:51;;;;;;;4.13;2.00;;;;;;;18.39;45.33;100931.84;2062302;28;20254;-51
2021/03/29 03:13:53;;;;;;;4.28;2.30;;;;;;;18.39;45.53;100925.53;2058684;28;20034;-51
2021/03/29 03:14:54;;;;;;;3.70;2.53;;;;;;;18.38;45.38;100927.41;2060925;28;20033;-52
2021/03/29 03:15:55;;;;;;;3.43;2.30;;;;;;;18.38;45.53;100919.22;2066211;28;20058;-52
2021/03/29 03:16:55;;;;;;;3.80;2.57;;;;;;;18.37;45.29;100922.94;2056778;28;20027;-48
2021/03/29 03:17:59;;;;;;;3.20;2.00;;;;;;;18.36;45.40;100923.06;2057898;28;20057;-51
2021/03/29 03:19:00;;;;;;;4.85;2.75;;;;;;;18.36;45.52;100913.00;2066027;28;20081;-51
2021/03/29 03:20:00;;;;;;;3.97;2.20;;;;;;;18.37;45.36;100931.13;2061052;28;20091;-53
2021/03/29 03:21:01;;;;;;;3.73;2.47;;;;;;;18.36;45.32;100923.91;2065821;28;20076;-52
2021/03/29 03:22:03;;;;;;;3.13;2.27;;;;;;;18.35;45.37;100922.19;2059043;28;20034;-52
2021/03/29 03:23:09;;;;;;;4.07;2.20;;;;;;;18.36;45.60;100918.47;2056435;28;20026;-52
2021/03/29 03:24:10;;;;;;;2.55;1.92;;;;;;;18.36;45.47;100913.00;2057800;28;20039;-50
2021/03/29 03:25:43;;;;;;;2.80;1.97;;;;;;;18.35;45.49;100916.72;2062595;28;20617;-53
2021/03/29 03:26:43;;;;;;;2.90;2.08;;;;;;;18.34;45.56;100920.44;2063536;28;20312;-51
2021/03/29 03:27:45;;;;;;;3.27;2.20;;;;;;;18.34;45.50;100923.16;2066181;28;20029;-52
2021/03/29 03:28:46;;;;;;;3.63;2.17;;;;;;;18.34;45.50;100917.72;2059970;28;20730;-52
2021/03/29 03:29:46;;;;;;;3.27;2.07;;;;;;;18.34;45.38;100914.97;2065750;28;20030;-52
2021/03/29 03:30:52;;;;;;;3.70;2.27;;;;;;;18.33;45.59;100918.72;2057948;28;20030;-50
2021/03/29 03:31:52;;;;;;;2.80;2.10;;;;;;;18.33;45.65;100907.78;2059754;28;20027;-51
2021/03/29 03:32:54;;;;;;;3.40;2.10;;;;;;;18.34;45.39;100909.53;2057961;28;20029;-52
2021/03/29 03:33:54;;;;;;;3.53;2.10;;;;;;;18.35;45.41;100915.88;2063572;28;20481;-52
2021/03/29 03:34:55;;;;;;;4.07;2.20;;;;;;;18.34;45.49;100917.72;2065384;28;20074;-50
2021/03/29 03:35:56;;;;;;;3.07;2.30;;;;;;;18.33;45.51;100910.53;2063366;28;20129;-52
2021/03/29 03:36:58;;;;;;;3.90;2.00;;;;;;;18.34;45.66;100908.66;2064708;28;20064;-52
2021/03/29 03:38:00;;;;;;;3.83;2.78;;;;;;;18.33;45.44;100907.78;2065375;28;20500;-51
2021/03/29 03:39:02;;;;;;;3.90;2.30;;;;;;;18.33;45.50;100901.47;2059326;28;20038;-52
2021/03/29 03:40:04;;;;;;;3.05;2.55;;;;;;;18.33;45.40;100907.78;2062979;28;20356;-49
2021/03/29 03:41:09;;;;;;;5.13;2.53;;;;;;;18.32;45.65;100906.03;2065452;28;20057;-52
2021/03/29 03:42:12;;;;;;;3.45;2.20;;;;;;;18.32;45.49;100905.19;2063933;28;21910;-51
2021/03/29 03:43:16;;;;;;;6.43;2.47;;;;;;;18.33;45.51;100906.94;2060976;28;20065;-50
2021/03/29 03:44:19;;;;;;;4.65;2.92;;;;;;;18.33;45.52;100906.94;2064749;28;20096;-52
2021/03/29 03:45:27;;;;;;;3.28;2.15;;;;;;;18.32;45.63;100906.03;2057803;28;20436;-50
2021/03/29 03:46:39;;;;;;;3.03;2.10;;;;;;;18.31;45.56;100909.78;2062603;28;20094;-50
2021/03/29 03:47:42;;;;;;;4.10;2.10;;;;;;;18.31;45.39;100909.78;2060354;28;20018;-52
2021/03/29 03:48:44;;;;;;;2.72;2.28;;;;;;;18.32;45.49;100906.03;2063917;28;20030;-51
2021/03/29 03:49:45;;;;;;;3.10;2.75;;;;;;;18.32;45.46;100903.31;2064834;28;20104;-51
2021/03/29 03:50:50;;;;;;;3.80;2.87;;;;;;;18.31;45.50;100909.78;2058144;28;20077;-51
2021/03/29 03:51:52;;;;;;;4.00;2.65;;;;;;;18.30;45.60;100908.06;2064073;28;20022;-53
2021/03/29 03:52:54;;;;;;;3.20;2.15;;;;;;;18.31;45.65;100909.78;2061772;28;20451;-52
2021/03/29 03:53:54;;;;;;;2.95;1.95;;;;;;;18.30;45.43;100908.06;2065765;28;20073;-52
2021/03/29 03:54:56;;;;;;;3.10;2.33;;;;;;;18.31;45.49;100908.91;2065442;28;20161;-52
2021/03/29 03:55:58;;;;;;;3.28;2.35;;;;;;;18.31;45.59;100904.31;2064359;28;20058;-51
2021/03/29 03:56:59;;;;;;;3.95;2.30;;;;;;;18.30;45.54;100910.78;2073685;28;20420;-52
2021/03/29 03:58:01;;;;;;;4.50;2.33;;;;;;;18.29;45.46;100911.75;2063452;28;20031;-52
2021/03/29 03:59:06;;;;;;;3.90;2.10;;;;;;;18.29;45.62;100914.50;2063193;28;20031;-50
2021/03/29 04:00:16;;;;;;;3.15;2.08;;;;;;;18.28;45.53;100910.03;2065325;28;20041;-52
2021/03/29 04:01:16;;;;;;;2.95;2.15;;;;;;;18.29;45.60;100911.75;2064724;28;20034;-51
2021/03/29 04:02:17;;;;;;;3.67;2.20;;;;;;;18.28;45.52;100907.31;2065648;28;20730;-52
2021/03/29 04:03:17;;;;;;;3.40;2.20;;;;;;;18.28;45.56;100904.56;2062798;28;20034;-52
2021/03/29 04:04:18;;;;;;;4.10;2.07;;;;;;;18.29;45.68;100911.75;2061279;28;20333;-52
2021/03/29 04:05:19;;;;;;;4.00;2.27;;;;;;;18.29;45.69;100906.31;2065821;28;20030;-51
2021/03/29 04:06:20;;;;;;;3.03;2.50;;;;;;;18.29;45.70;100910.91;2061678;28;20519;-51
2021/03/29 04:07:21;;;;;;;2.95;1.92;;;;;;;18.29;45.71;100906.31;2057819;28;20110;-52
2021/03/29 04:08:22;;;;;;;5.00;2.77;;;;;;;18.32;45.51;100907.91;2061086;28;20022;-52
2021/03/29 04:09:30;;;;;;;5.00;2.50;;;;;;;18.31;45.45;100904.31;2064602;28;20138;-52
2021/03/29 04:10:43;;;;;;;4.13;2.78;;;;;;;18.32;45.76;100908.78;2065347;28;20365;-51
2021/03/29 04:11:49;;;;;;;3.10;2.28;;;;;;;18.31;45.57;100904.31;2061276;28;20109;-52
2021/03/29 04:12:53;;;;;;;3.45;2.38;;;;;;;18.31;45.59;100901.59;2064895;28;20030;-50
2021/03/29 04:13:54;;;;;;;3.28;2.33;;;;;;;18.32;45.60;100897.84;2072779;28;20534;-52
2021/03/29 04:14:54;;;;;;;3.63;2.50;;;;;;;18.32;45.97;100903.31;2065436;28;20030;-49
2021/03/29 04:16:04;;;;;;;5.00;2.20;;;;;;;18.32;45.76;100906.03;2065059;28;20034;-50
2021/03/29 04:17:06;;;;;;;2.95;2.05;;;;;;;18.33;45.68;100907.78;2057779;28;20027;-50
2021/03/29 04:18:06;;;;;;;;;;;;;;;18.27;45.67;100902.81;2061667;28;20135;-51
2021/03/29 04:19:07;;;;;;;2.58;2.05;;;;;;;18.28;45.69;100910.03;2057065;28;19942;-49
2021/03/29 04:20:09;;;;;;;3.53;2.10;;;;;;;18.30;45.70;100902.59;2059818;28;20102;-52
2021/03/29 04:21:10;;;;;;;3.13;1.90;;;;;;;18.32;45.79;100900.59;2063627;28;20026;-51
2021/03/29 04:22:11;;;;;;;3.92;2.15;;;;;;;18.31;45.84;100901.59;2062062;28;20558;-53
2021/03/29 04:23:12;;;;;;;3.40;2.10;;;;;;;18.31;45.72;100898.88;2061514;28;20027;-52
2021/03/29 04:24:13;;;;;;;3.30;2.17;;;;;;;18.31;45.68;100904.31;2064816;28;20033;-52
2021/03/29 04:25:14;;;;;;;3.43;2.23;;;;;;;18.32;45.74;100905.19;2059529;28;20094;-52
2021/03/29 04:26:14;;;;;;;4.07;2.57;;;;;;;18.32;45.64;100894.25;2062208;28;20097;-53
2021/03/29 04:27:15;;;;;;;3.13;2.43;;;;;;;18.32;45.86;100905.19;2064898;28;20157;-52
2021/03/29 04:28:17;;;;;;;3.47;2.27;;;;;;;18.33;45.59;100896.88;2061129;28;20033;-53
2021/03/29 04:29:17;;;;;;;3.33;2.15;;;;;;;18.32;45.74;100900.59;2056988;28;20023;-51
2021/03/29 04:30:19;;;;;;;2.73;1.93;;;;;;;18.33;45.58;100896.88;2058602;28;20027;-52
2021/03/29 04:31:19;;;;;;;3.55;2.20;;;;;;;18.34;45.82;100895.88;2060522;28;20096;-52
2021/03/29 04:32:20;;;;;;;4.30;2.37;;;;;;;18.35;45.70;100894.03;2065663;28;20049;-52
2021/03/29 04:33:22;;;;;;;4.57;2.42;;;;;;;18.34;45.48;100893.16;2060157;28;20031;-50
2021/03/29 04:34:23;;;;;;;3.08;2.22;;;;;;;18.33;45.68;100896.88;2065495;28;20038;-52
2021/03/29 04:35:24;;;;;;;2.97;1.97;;;;;;;18.33;45.50;100898.75;2058996;28;20423;-52
2021/03/29 04:36:24;;;;;;;2.70;1.90;;;;;;;18.33;45.47;100896.03;2064621;28;20080;-50
2021/03/29 04:37:25;;;;;;;2.95;2.22;;;;;;;18.34;45.57;100892.28;2065496;28;20061;-50
2021/03/29 04:38:25;;;;;;;3.03;1.80;;;;;;;18.33;45.58;100902.34;2064378;28;20026;-52
2021/03/29 04:39:26;;;;;;;2.83;2.13;;;;;;;18.32;45.68;100895.13;2064382;28;20060;-51
2021/03/29 04:40:27;;;;;;;2.83;2.00;;;;;;;18.33;45.49;100905.06;2073746;28;20025;-50
2021/03/29 04:41:28;;;;;;;2.95;1.70;;;;;;;18.32;45.58;100900.59;2066776;28;20068;-52
2021/03/29 04:42:29;;;;;;;2.57;1.93;;;;;;;18.33;45.51;100901.47;2064926;28;20066;-50
2021/03/29 04:43:29;;;;;;;2.97;1.80;;;;;;;18.31;45.73;100898.88;2067408;28;20033;-53
2021/03/29 04:44:29;;;;;;;2.67;2.13;;;;;;;18.32;45.62;100900.59;2064270;28;20064;-52
2021/03/29 04:45:30;;;;;;;2.43;1.90;;;;;;;18.32;45.58;100908.78;2063647;28;20018;-52
2021/03/29 04:46:30;;;;;;;3.27;2.53;;;;;;;18.32;45.58;100903.31;2063050;28;20337;-50
2021/03/29 04:47:31;;;;;;;3.53;2.37;;;;;;;18.31;45.59;100909.78;2064017;28;20033;-52
2021/03/29 04:48:31;;;;;;;3.07;2.20;;;;;;;18.32;45.56;100903.31;2062708;28;20026;-53
2021/03/29 04:49:32;;;;;;;3.13;2.17;;;;;;;18.31;45.52;100904.31;2063473;28;20425;-53
2021/03/29 04:50:32;;;;;;;2.10;1.60;;;;;;;18.31;45.64;100909.78;2066314;28;20125;-52
2021/03/29 04:51:33;;;;;;;3.33;2.20;;;;;;;18.31;45.65;100906.19;2061537;28;20026;-51
2021/03/29 04:52:34;;;;;;;2.87;2.20;;;;;;;18.31;45.52;100903.47;2058791;28;20086;-50